createdAt,value
2022-10-28T00:02:31.381Z,101990.09
2022-10-28T00:05:34.893Z,101994.03
2022-10-28T00:08:39.027Z,101987.19
2022-10-28T00:11:41.755Z,101995.38
2022-10-28T00:14:44.152Z,101989.84
2022-10-28T00:17:46.555Z,101999.63
2022-10-28T00:20:48.935Z,101980.41
2022-10-28T00:23:51.470Z,101980.47
2022-10-28T00:26:53.776Z,101972.00
2022-10-28T00:29:56.956Z,101996.31
2022-10-28T00:32:59.336Z,101990.50
2022-10-28T00:36:29.029Z,101987.59
2022-10-28T00:39:31.473Z,101992.63
2022-10-28T00:42:33.844Z,101981.03
2022-10-28T00:45:36.212Z,101981.78
2022-10-28T00:48:41.302Z,101993.69
2022-10-28T00:51:44.556Z,101979.91
2022-10-28T00:54:47.595Z,101972.00
2022-10-28T00:57:52.095Z,101992.59
2022-10-28T01:00:55.778Z,101979.88
2022-10-28T01:03:58.321Z,101984.31
2022-10-28T01:07:01.912Z,101984.50
2022-10-28T01:10:04.529Z,101986.66
2022-10-28T01:13:14.580Z,101964.72
2022-10-28T01:17:02.830Z,101978.56
2022-10-28T01:20:41.777Z,101994.19
2022-10-28T01:24:15.838Z,101979.66
2022-10-28T01:27:44.576Z,101977.22
2022-10-28T01:31:04.870Z,101991.72
2022-10-28T01:34:12.621Z,101979.25
2022-10-28T01:37:19.998Z,101978.00
2022-10-28T01:40:43.871Z,101966.09
2022-10-28T01:44:13.145Z,101978.97
2022-10-28T01:47:40.329Z,101985.44
2022-10-28T01:50:51.393Z,101981.50
2022-10-28T01:53:55.701Z,101974.06
2022-10-28T01:56:58.826Z,101984.38
2022-10-28T02:00:01.898Z,101982.06
2022-10-28T02:03:16.586Z,101962.38
2022-10-28T02:06:21.301Z,101977.47
2022-10-28T02:10:02.751Z,101975.16
2022-10-28T02:13:11.797Z,101952.44
2022-10-28T02:16:23.604Z,101974.03
2022-10-28T02:19:37.460Z,101963.59
2022-10-28T02:22:39.831Z,101976.38
2022-10-28T02:25:56.252Z,101963.56
2022-10-28T02:29:13.708Z,101966.50
2022-10-28T02:32:20.042Z,101970.59
2022-10-28T02:35:43.640Z,101970.19
2022-10-28T02:38:49.100Z,101974.41
2022-10-28T02:42:11.175Z,101967.66
2022-10-28T02:45:19.768Z,101968.47
2022-10-28T02:48:26.750Z,101969.19
2022-10-28T02:51:35.046Z,101980.25
2022-10-28T02:54:58.787Z,101973.94
2022-10-28T02:58:01.272Z,101975.75
2022-10-28T03:01:03.678Z,101959.28
2022-10-28T03:04:06.380Z,101964.88
2022-10-28T03:07:08.722Z,101980.09
2022-10-28T03:10:11.297Z,101971.06
2022-10-28T03:13:13.616Z,101963.97
2022-10-28T03:16:15.967Z,101963.41
2022-10-28T03:19:18.329Z,101965.09
2022-10-28T03:22:20.740Z,101971.66
2022-10-28T03:25:23.092Z,101962.06
2022-10-28T03:28:25.424Z,101977.88
2022-10-28T03:31:27.892Z,101971.31
2022-10-28T03:34:30.893Z,101973.47
2022-10-28T03:37:33.840Z,101981.34
2022-10-28T03:40:36.967Z,101981.78
2022-10-28T03:43:39.731Z,101969.34
2022-10-28T03:46:42.165Z,101971.22
2022-10-28T03:49:44.663Z,101961.31
2022-10-28T03:52:47.121Z,101965.19
2022-10-28T03:55:57.359Z,101956.50
2022-10-28T03:59:00.577Z,101955.78
2022-10-28T04:02:03.141Z,101981.78
2022-10-28T04:05:05.890Z,101948.88
2022-10-28T04:08:09.085Z,101973.75
2022-10-28T04:11:12.520Z,101971.19
2022-10-28T04:14:15.625Z,101953.41
2022-10-28T04:17:17.969Z,101969.41
2022-10-28T04:20:20.487Z,101974.47
2022-10-28T04:23:22.944Z,101969.19
2022-10-28T04:26:25.457Z,101943.94
2022-10-28T04:29:29.222Z,101965.31
2022-10-28T04:32:32.267Z,101962.94
2022-10-28T04:35:34.739Z,101948.31
2022-10-28T04:38:37.351Z,101959.88
2022-10-28T04:41:40.046Z,101962.44
2022-10-28T04:44:42.473Z,101946.38
2022-10-28T04:47:44.864Z,101963.59
2022-10-28T04:50:47.899Z,101963.94
2022-10-28T04:53:50.855Z,101964.88
2022-10-28T04:56:55.585Z,101939.78
2022-10-28T04:59:58.499Z,101959.06
2022-10-28T05:03:02.481Z,101955.97
2022-10-28T05:06:05.293Z,101952.28
2022-10-28T05:09:07.980Z,101944.63
2022-10-28T05:12:10.485Z,101961.25
2022-10-28T05:15:14.376Z,101957.75
2022-10-28T05:18:17.157Z,101948.63
2022-10-28T05:21:19.643Z,101942.69
2022-10-28T05:24:22.233Z,101951.16
2022-10-28T05:27:24.770Z,101946.34
2022-10-28T05:30:28.074Z,101958.47
2022-10-28T05:33:30.569Z,101943.69
2022-10-28T05:36:33.148Z,101961.31
2022-10-28T05:39:35.964Z,101964.19
2022-10-28T05:42:42.590Z,101954.06
2022-10-28T05:45:45.222Z,101947.13
2022-10-28T05:48:47.915Z,101948.16
2022-10-28T05:51:50.438Z,101955.38
2022-10-28T05:54:52.855Z,101953.63
2022-10-28T05:57:56.374Z,101963.81
2022-10-28T06:00:59.731Z,101971.56
2022-10-28T06:04:02.640Z,101980.59
2022-10-28T06:07:05.353Z,101975.75
2022-10-28T06:10:09.315Z,101978.31
2022-10-28T06:13:15.292Z,101975.97
2022-10-28T06:16:17.662Z,101965.09
2022-10-28T06:19:20.098Z,101971.78
2022-10-28T06:22:22.492Z,101985.75
2022-10-28T06:25:25.471Z,101980.31
2022-10-28T06:28:28.831Z,101976.38
2022-10-28T06:31:31.939Z,101976.09
2022-10-28T06:34:34.370Z,101990.94
2022-10-28T06:37:36.805Z,101987.81
2022-10-28T06:40:39.345Z,101984.31
2022-10-28T06:43:41.719Z,102002.59
2022-10-28T06:46:45.685Z,102002.03
2022-10-28T06:49:49.556Z,101991.72
2022-10-28T06:52:53.391Z,101989.13
2022-10-28T06:55:57.146Z,101992.91
2022-10-28T06:58:59.699Z,102003.75
2022-10-28T07:02:02.992Z,102011.22
2022-10-28T07:05:07.224Z,102000.47
2022-10-28T07:08:10.139Z,102004.75
2022-10-28T07:11:12.601Z,102020.16
2022-10-28T07:14:15.050Z,102017.63
2022-10-28T07:17:17.796Z,101999.94
2022-10-28T07:20:20.826Z,102008.16
2022-10-28T07:23:23.223Z,101996.47
2022-10-28T07:26:26.285Z,102009.75
2022-10-28T07:29:28.642Z,102009.91
2022-10-28T07:32:34.992Z,102004.66
2022-10-28T07:35:39.008Z,102012.16
2022-10-28T07:38:43.430Z,101996.38
2022-10-28T07:41:47.651Z,101990.00
2022-10-28T07:44:50.107Z,102002.28
2022-10-28T07:47:52.883Z,102008.78
2022-10-28T07:50:55.469Z,102006.31
2022-10-28T07:53:58.037Z,102003.19
2022-10-28T07:57:00.468Z,102008.28
2022-10-28T08:00:04.187Z,102009.13
2022-10-28T08:03:12.819Z,102006.38
2022-10-28T08:06:20.361Z,102014.47
2022-10-28T08:09:22.760Z,102010.78
2022-10-28T08:12:25.287Z,102010.25
2022-10-28T08:15:28.880Z,102008.00
2022-10-28T08:18:31.881Z,102004.81
2022-10-28T08:21:34.333Z,102016.66
2022-10-28T08:24:36.821Z,102010.59
2022-10-28T08:27:40.678Z,102005.88
2022-10-28T08:30:57.207Z,102016.03
2022-10-28T08:34:06.492Z,102018.25
2022-10-28T08:37:09.385Z,102022.78
2022-10-28T08:40:14.991Z,102021.56
2022-10-28T08:43:57.036Z,102033.41
2022-10-28T08:47:18.624Z,102028.66
2022-10-28T08:50:23.670Z,102035.06
2022-10-28T08:53:29.554Z,102024.00
2022-10-28T08:56:35.866Z,102013.00
2022-10-28T08:59:40.474Z,102031.06
2022-10-28T09:03:11.728Z,102029.03
2022-10-28T09:06:14.341Z,102009.94
2022-10-28T09:09:21.895Z,102031.19
2022-10-28T09:12:42.685Z,102041.94
2022-10-28T09:15:56.012Z,102037.06
2022-10-28T09:19:04.117Z,102041.53
2022-10-28T09:22:13.744Z,102034.75
2022-10-28T09:25:39.549Z,102027.34
2022-10-28T09:28:47.740Z,102030.72
2022-10-28T09:31:57.904Z,102020.56
2022-10-28T09:35:06.444Z,102015.19
2022-10-28T09:38:16.348Z,102018.16
2022-10-28T09:41:21.852Z,102017.69
2022-10-28T09:44:39.479Z,102003.19
2022-10-28T09:47:44.986Z,101998.56
2022-10-28T09:50:50.592Z,102008.59
2022-10-28T09:54:00.489Z,102017.16
2022-10-28T09:57:03.784Z,102020.16
2022-10-28T10:00:17.907Z,102018.56
2022-10-28T10:03:21.439Z,102012.59
2022-10-28T10:06:35.601Z,102027.59
2022-10-28T10:09:39.170Z,102012.19
2022-10-28T10:12:41.922Z,102018.69
2022-10-28T10:15:51.455Z,101997.88
2022-10-28T10:18:57.311Z,102017.38
2022-10-28T10:21:59.707Z,102014.13
2022-10-28T10:25:03.391Z,102011.34
2022-10-28T10:28:14.919Z,102007.13
2022-10-28T10:31:27.290Z,102019.09
2022-10-28T10:34:30.673Z,102000.75
2022-10-28T10:37:36.628Z,102018.69
2022-10-28T10:40:48.954Z,102000.22
2022-10-28T10:43:51.291Z,102002.88
2022-10-28T10:47:04.904Z,102014.56
2022-10-28T10:53:39.945Z,101985.38
2022-10-28T10:56:43.017Z,101997.16
2022-10-28T10:59:47.463Z,101986.22
2022-10-28T11:02:53.524Z,102007.38
2022-10-28T11:06:22.110Z,101999.63
2022-10-28T11:09:35.557Z,102002.59
2022-10-28T11:12:41.184Z,101981.63
2022-10-28T11:15:43.518Z,101973.25
2022-10-28T11:18:48.443Z,101981.22
2022-10-28T11:22:12.528Z,101988.72
2022-10-28T11:25:43.208Z,102004.75
2022-10-28T11:29:01.662Z,101985.66
2022-10-28T11:32:17.312Z,102004.75
2022-10-28T11:35:23.786Z,101996.19
2022-10-28T11:38:45.711Z,101991.50
2022-10-28T11:42:02.263Z,101974.28
2022-10-28T11:45:18.690Z,101966.81
2022-10-28T11:48:24.087Z,101978.19
2022-10-28T11:51:48.296Z,101968.22
2022-10-28T11:55:04.063Z,101972.53
2022-10-28T11:58:21.200Z,101939.78
2022-10-28T12:01:29.868Z,101961.56
2022-10-28T12:05:02.978Z,101948.56
2022-10-28T12:08:27.736Z,101939.91
2022-10-28T12:11:42.152Z,101940.88
2022-10-28T12:14:44.512Z,101946.50
2022-10-28T12:17:59.224Z,101952.78
2022-10-28T12:21:17.208Z,101945.81
2022-10-28T12:24:21.474Z,101954.06
2022-10-28T12:27:27.812Z,101947.72
2022-10-28T12:30:38.706Z,101958.59
2022-10-28T12:33:45.872Z,101928.28
2022-10-28T12:36:50.840Z,101931.41
2022-10-28T12:40:17.377Z,101915.09
2022-10-28T12:43:24.253Z,101907.28
2022-10-28T12:50:16.829Z,101934.91
2022-10-28T12:53:30.920Z,101929.78
2022-10-28T12:56:36.979Z,101922.19
2022-10-28T12:59:44.027Z,101917.91
2022-10-28T13:03:01.576Z,101913.31
2022-10-28T13:09:51.635Z,101906.00
2022-10-28T13:13:33.099Z,101921.28
2022-10-28T13:17:11.188Z,101927.25
2022-10-28T13:20:19.345Z,101921.78
2022-10-28T13:23:30.331Z,101902.19
2022-10-28T13:26:36.728Z,101895.00
2022-10-28T13:29:41.230Z,101905.59
2022-10-28T13:32:44.158Z,101893.59
2022-10-28T13:35:47.197Z,101910.72
2022-10-28T13:38:54.727Z,101915.88
2022-10-28T13:42:23.173Z,101912.09
2022-10-28T13:45:44.143Z,101903.84
2022-10-28T13:48:47.913Z,101903.13
2022-10-28T13:51:51.968Z,101906.31
2022-10-28T13:54:59.174Z,101903.13
2022-10-28T13:58:04.689Z,101900.19
2022-10-28T14:01:44.410Z,101904.09
2022-10-28T14:05:02.490Z,101889.44
2022-10-28T14:08:17.302Z,101881.47
2022-10-28T14:11:24.152Z,101897.44
2022-10-28T14:14:26.535Z,101878.72
2022-10-28T14:17:37.357Z,101878.38
2022-10-28T14:21:01.684Z,101886.28
2022-10-28T14:24:04.238Z,101895.50
2022-10-28T14:27:08.717Z,101885.94
2022-10-28T14:30:17.243Z,101874.81
2022-10-28T14:33:21.089Z,101885.19
2022-10-28T14:36:38.033Z,101890.94
2022-10-28T14:39:45.572Z,101894.22
2022-10-28T14:43:16.013Z,101887.75
2022-10-28T14:46:46.262Z,101900.69
2022-10-28T14:50:00.686Z,101885.09
2022-10-28T14:53:06.101Z,101888.22
2022-10-28T14:56:27.886Z,101896.41
2022-10-28T14:59:35.831Z,101875.34
2022-10-28T15:02:38.886Z,101889.03
2022-10-28T15:05:41.352Z,101877.63
2022-10-28T15:08:44.203Z,101887.94
2022-10-28T15:11:50.763Z,101887.22
2022-10-28T15:14:58.114Z,101886.59
2022-10-28T15:18:00.888Z,101886.09
2022-10-28T15:21:11.116Z,101872.81
2022-10-28T15:24:13.786Z,101871.81
2022-10-28T15:27:16.275Z,101873.03
2022-10-28T15:30:23.849Z,101860.34
2022-10-28T15:33:37.034Z,101856.06
2022-10-28T15:36:39.554Z,101846.69
2022-10-28T15:39:41.957Z,101839.50
2022-10-28T15:42:53.606Z,101848.56
2022-10-28T15:46:15.439Z,101851.72
2022-10-28T15:49:55.650Z,101860.47
2022-10-28T15:53:07.077Z,101860.13
2022-10-28T15:56:15.318Z,101852.44
2022-10-28T15:59:21.696Z,101842.94
2022-10-28T16:02:41.048Z,101853.25
2022-10-28T16:05:44.978Z,101853.56
2022-10-28T16:08:48.297Z,101847.75
2022-10-28T16:11:53.345Z,101851.19
2022-10-28T16:14:59.460Z,101865.16
2022-10-28T16:18:01.991Z,101865.28
2022-10-28T16:21:04.713Z,101843.44
2022-10-28T16:24:09.159Z,101847.97
2022-10-28T16:27:32.868Z,101871.59
2022-10-28T16:30:35.297Z,101859.56
2022-10-28T16:33:38.447Z,101862.44
2022-10-28T16:36:40.779Z,101822.91
2022-10-28T16:39:43.319Z,101863.34
2022-10-28T16:42:48.759Z,101864.56
2022-10-28T16:45:52.796Z,101873.94
2022-10-28T16:48:55.181Z,101874.75
2022-10-28T16:51:57.962Z,101868.94
2022-10-28T16:55:00.553Z,101880.25
2022-10-28T16:58:03.062Z,101854.50
2022-10-28T17:01:05.838Z,101873.56
2022-10-28T17:04:08.997Z,101845.09
2022-10-28T17:07:16.125Z,101863.19
2022-10-28T17:10:18.942Z,101857.78
2022-10-28T17:13:21.449Z,101857.53
2022-10-28T17:16:23.875Z,101862.38
2022-10-28T17:19:26.923Z,101854.41
2022-10-28T17:22:30.992Z,101870.91
2022-10-28T17:25:34.268Z,101870.44
2022-10-28T17:28:36.969Z,101862.81
2022-10-28T17:31:39.397Z,101872.91
2022-10-28T17:34:41.814Z,101864.91
2022-10-28T17:37:44.269Z,101861.19
2022-10-28T17:40:54.762Z,101870.47
2022-10-28T17:43:57.445Z,101844.50
2022-10-28T17:47:01.092Z,101865.28
2022-10-28T17:50:04.075Z,101846.69
2022-10-28T17:53:06.460Z,101860.94
2022-10-28T17:56:09.765Z,101861.41
2022-10-28T17:59:12.470Z,101876.59
2022-10-28T18:02:15.047Z,101865.44
2022-10-28T18:05:17.557Z,101852.59
2022-10-28T18:08:20.784Z,101868.53
2022-10-28T18:11:23.114Z,101868.94
2022-10-28T18:14:25.584Z,101854.06
2022-10-28T18:17:29.337Z,101872.03
2022-10-28T18:20:32.537Z,101866.88
2022-10-28T18:23:35.639Z,101857.44
2022-10-28T18:26:38.814Z,101865.34
2022-10-28T18:29:41.524Z,101856.66
2022-10-28T18:32:43.891Z,101832.91
2022-10-28T18:38:54.919Z,101862.00
2022-10-28T18:41:58.805Z,101863.16
2022-10-28T18:45:02.727Z,101859.81
2022-10-28T18:48:06.676Z,101866.72
2022-10-28T18:51:13.542Z,101868.41
2022-10-28T18:54:18.079Z,101855.19
2022-10-28T18:57:22.107Z,101860.00
2022-10-28T19:00:24.582Z,101850.69
2022-10-28T19:03:27.294Z,101848.25
2022-10-28T19:06:32.610Z,101848.88
2022-10-28T19:09:36.136Z,101851.03
2022-10-28T19:12:42.857Z,101864.31
2022-10-28T19:15:47.737Z,101843.97
2022-10-28T19:18:57.317Z,101858.88
2022-10-28T19:22:01.276Z,101867.78
2022-10-28T19:25:04.789Z,101864.25
2022-10-28T19:28:07.232Z,101855.59
2022-10-28T19:31:14.175Z,101867.19
2022-10-28T19:34:16.541Z,101874.69
2022-10-28T19:37:19.013Z,101867.59
2022-10-28T19:40:21.359Z,101867.69
2022-10-28T19:43:23.813Z,101863.94
2022-10-28T19:46:30.963Z,101868.09
2022-10-28T19:49:39.292Z,101877.81
2022-10-28T19:52:44.386Z,101879.16
2022-10-28T19:55:48.929Z,101882.31
2022-10-28T19:58:54.341Z,101882.03
2022-10-28T20:01:56.779Z,101879.72
2022-10-28T20:04:59.226Z,101877.84
2022-10-28T20:08:01.816Z,101875.28
2022-10-28T20:11:06.919Z,101874.03
2022-10-28T20:14:12.383Z,101861.53
2022-10-28T20:17:15.447Z,101857.78
2022-10-28T20:20:18.212Z,101855.00
2022-10-28T20:23:20.629Z,101838.84
2022-10-28T20:26:28.247Z,101862.59
2022-10-28T20:29:31.202Z,101870.44
2022-10-28T20:32:34.861Z,101857.16
2022-10-28T20:35:38.550Z,101875.56
2022-10-28T20:38:41.647Z,101866.63
2022-10-28T20:41:45.927Z,101871.91
2022-10-28T20:44:48.281Z,101876.53
2022-10-28T20:47:52.783Z,101864.91
2022-10-28T20:50:57.066Z,101879.06
2022-10-28T20:53:59.717Z,101881.25
2022-10-28T20:57:02.115Z,101888.66
2022-10-28T21:00:06.375Z,101865.03
2022-10-28T21:03:11.649Z,101871.38
2022-10-28T21:06:15.632Z,101884.72
2022-10-28T21:09:18.240Z,101876.75
2022-10-28T21:12:20.575Z,101872.16
2022-10-28T21:15:22.991Z,101886.69
2022-10-28T21:18:25.619Z,101866.13
2022-10-28T21:21:31.877Z,101874.88
2022-10-28T21:24:34.275Z,101864.84
2022-10-28T21:27:36.619Z,101869.56
2022-10-28T21:30:39.001Z,101847.81
2022-10-28T21:33:42.414Z,101872.44
2022-10-28T21:36:44.889Z,101841.72
2022-10-28T21:39:55.069Z,101867.50
2022-10-28T21:42:59.555Z,101867.31
2022-10-28T21:46:02.108Z,101868.88
2022-10-28T21:49:05.379Z,101887.09
2022-10-28T21:52:08.704Z,101863.75
2022-10-28T21:55:20.477Z,101864.31
2022-10-28T21:58:36.332Z,101862.25
2022-10-28T22:01:38.785Z,101875.91
2022-10-28T22:04:41.258Z,101861.50
2022-10-28T22:07:43.693Z,101862.50
2022-10-28T22:10:46.112Z,101863.16
2022-10-28T22:13:55.637Z,101857.66
2022-10-28T22:16:57.995Z,101846.03
2022-10-28T22:20:00.450Z,101850.66
2022-10-28T22:23:02.959Z,101840.84
2022-10-28T22:26:07.330Z,101833.38
2022-10-28T22:29:09.731Z,101842.53
2022-10-28T22:32:12.074Z,101834.75
2022-10-28T22:35:14.525Z,101844.84
2022-10-28T22:38:16.873Z,101847.22
2022-10-28T22:41:30.384Z,101843.69
2022-10-28T22:44:32.711Z,101833.66
2022-10-28T22:47:35.150Z,101851.75
2022-10-28T22:50:37.606Z,101831.00
2022-10-28T22:53:40.654Z,101842.38
2022-10-28T22:56:45.868Z,101833.66
2022-10-28T22:59:48.873Z,101839.16
2022-10-28T23:02:51.300Z,101845.44
2022-10-28T23:05:54.985Z,101856.00
2022-10-28T23:08:58.979Z,101855.22
2022-10-28T23:12:01.858Z,101841.84
2022-10-28T23:15:05.363Z,101862.72
2022-10-28T23:18:08.292Z,101833.09
2022-10-28T23:21:12.623Z,101843.72
2022-10-28T23:24:15.023Z,101839.28
2022-10-28T23:27:17.463Z,101829.63
2022-10-28T23:30:19.880Z,101824.19
2022-10-28T23:33:22.312Z,101826.63
2022-10-28T23:36:25.888Z,101826.28
2022-10-28T23:39:30.957Z,101820.00
2022-10-28T23:42:33.717Z,101830.69
2022-10-28T23:45:36.018Z,101813.50
2022-10-28T23:48:38.558Z,101826.19
2022-10-28T23:51:40.974Z,101821.47
2022-10-28T23:54:43.341Z,101838.59
2022-10-28T23:57:45.719Z,101840.34
